Aviation Digital Data Service (ADDS)

Output produced by METARs form (0408 UTC 19 August 2019)
found at http://www.aviationweather.gov/metar/data/
 
METAR text: KBUR 190353Z 14006KT 10SM CLR 21/16 A2988 RMK AO2 SLP107 T02060156
Conditions at: KBUR (BURBANK , CA, US) observed 0353 UTC 19 August 2019
Temperature: 20.6°C (69°F)
Dewpoint: 15.6°C (60°F) [RH = 73%]
Pressure (altimeter): 29.88 inches Hg (1011.9 mb)
[Sea-level pressure: 1010.7 mb]
Winds: from the SE (140 degrees) at 7 MPH (6 knots; 3.1 m/s)
Visibility: 10 or more miles (16+ km)
Ceiling: at least 12,000 feet AGL
Clouds: sky clear below 12,000 feet AGL
Weather: no significant weather observed at this time

METAR text: KBUR 190253Z 18005KT 10SM CLR 22/15 A2987 RMK AO2 SLP103 T02170150 53004
Conditions at: KBUR (BURBANK , CA, US) observed 0253 UTC 19 August 2019
Temperature: 21.7°C (71°F)
Dewpoint: 15.0°C (59°F) [RH = 66%]
Pressure (altimeter): 29.87 inches Hg (1011.6 mb)
[Sea-level pressure: 1010.3 mb]
Winds: from the S (180 degrees) at 6 MPH (5 knots; 2.6 m/s)
Visibility: 10 or more miles (16+ km)
Ceiling: at least 12,000 feet AGL
Clouds: sky clear below 12,000 feet AGL
Weather: no significant weather observed at this time

METAR text: KBUR 190153Z 18007KT 10SM CLR 23/15 A2985 RMK AO2 SLP098 T02330150
Conditions at: KBUR (BURBANK , CA, US) observed 0153 UTC 19 August 2019
Temperature: 23.3°C (74°F)
Dewpoint: 15.0°C (59°F) [RH = 60%]
Pressure (altimeter): 29.85 inches Hg (1010.9 mb)
[Sea-level pressure: 1009.8 mb]
Winds: from the S (180 degrees) at 8 MPH (7 knots; 3.6 m/s)
Visibility: 10 or more miles (16+ km)
Ceiling: at least 12,000 feet AGL
Clouds: sky clear below 12,000 feet AGL
Weather: no significant weather observed at this time

METAR text: KBUR 190053Z 18007KT 10SM CLR 25/15 A2985 RMK AO2 SLP096 T02500150
Conditions at: KBUR (BURBANK , CA, US) observed 0053 UTC 19 August 2019
Temperature: 25.0°C (77°F)
Dewpoint: 15.0°C (59°F) [RH = 54%]
Pressure (altimeter): 29.85 inches Hg (1010.9 mb)
[Sea-level pressure: 1009.6 mb]
Winds: from the S (180 degrees) at 8 MPH (7 knots; 3.6 m/s)
Visibility: 10 or more miles (16+ km)
Ceiling: at least 12,000 feet AGL
Clouds: sky clear below 12,000 feet AGL
Weather: no significant weather observed at this time

METAR text: KBUR 182353Z 19007KT 10SM CLR 27/15 A2986 RMK AO2 SLP098 T02720150 10278 20217 56016
Conditions at: KBUR (BURBANK , CA, US) observed 2353 UTC 18 August 2019
Temperature: 27.2°C (81°F)
Dewpoint: 15.0°C (59°F) [RH = 47%]
Pressure (altimeter): 29.86 inches Hg (1011.3 mb)
[Sea-level pressure: 1009.8 mb]
Winds: from the S (190 degrees) at 8 MPH (7 knots; 3.6 m/s)
Visibility: 10 or more miles (16+ km)
Ceiling: at least 12,000 feet AGL
Clouds: sky clear below 12,000 feet AGL
Weather: no significant weather observed at this time

METAR text: KBUR 182253Z 17008KT 10SM CLR 27/15 A2987 RMK AO2 SLP100 T02720150
Conditions at: KBUR (BURBANK , CA, US) observed 2253 UTC 18 August 2019
Temperature: 27.2°C (81°F)
Dewpoint: 15.0°C (59°F) [RH = 47%]
Pressure (altimeter): 29.87 inches Hg (1011.6 mb)
[Sea-level pressure: 1010.0 mb]
Winds: from the S (170 degrees) at 9 MPH (8 knots; 4.1 m/s)
Visibility: 10 or more miles (16+ km)
Ceiling: at least 12,000 feet AGL
Clouds: sky clear below 12,000 feet AGL
Weather: no significant weather observed at this time

METAR text: KBUR 182153Z 20008KT 10SM CLR 27/15 A2989 RMK AO2 SLP108 T02720150
Conditions at: KBUR (BURBANK , CA, US) observed 2153 UTC 18 August 2019
Temperature: 27.2°C (81°F)
Dewpoint: 15.0°C (59°F) [RH = 47%]
Pressure (altimeter): 29.89 inches Hg (1012.3 mb)
[Sea-level pressure: 1010.8 mb]
Winds: from the SSW (200 degrees) at 9 MPH (8 knots; 4.1 m/s)
Visibility: 10 or more miles (16+ km)
Ceiling: at least 12,000 feet AGL
Clouds: sky clear below 12,000 feet AGL
Weather: no significant weather observed at this time

METAR text: KBUR 182053Z 17008KT 10SM CLR 27/15 A2991 RMK AO2 SLP115 T02670150 58012
Conditions at: KBUR (BURBANK , CA, US) observed 2053 UTC 18 August 2019
Temperature: 26.7°C (80°F)
Dewpoint: 15.0°C (59°F) [RH = 49%]
Pressure (altimeter): 29.91 inches Hg (1013.0 mb)
[Sea-level pressure: 1011.5 mb]
Winds: from the S (170 degrees) at 9 MPH (8 knots; 4.1 m/s)
Visibility: 10 or more miles (16+ km)
Ceiling: at least 12,000 feet AGL
Clouds: sky clear below 12,000 feet AGL
Weather: no significant weather observed at this time

METAR text: KBUR 181953Z 20007KT 140V230 10SM CLR 26/15 A2992 RMK AO2 SLP120 T02560150
Conditions at: KBUR (BURBANK , CA, US) observed 1953 UTC 18 August 2019
Temperature: 25.6°C (78°F)
Dewpoint: 15.0°C (59°F) [RH = 52%]
Pressure (altimeter): 29.92 inches Hg (1013.3 mb)
[Sea-level pressure: 1012.0 mb]
Winds: from the SSW (200 degrees) at 8 MPH (7 knots; 3.6 m/s)
Visibility: 10 or more miles (16+ km)
Ceiling: at least 12,000 feet AGL
Clouds: sky clear below 12,000 feet AGL
Weather: no significant weather observed at this time

METAR text: KBUR 181853Z 19008KT 10SM CLR 23/15 A2994 RMK AO2 SLP125 T02330150
Conditions at: KBUR (BURBANK , CA, US) observed 1853 UTC 18 August 2019
Temperature: 23.3°C (74°F)
Dewpoint: 15.0°C (59°F) [RH = 60%]
Pressure (altimeter): 29.94 inches Hg (1014.0 mb)
[Sea-level pressure: 1012.5 mb]
Winds: from the S (190 degrees) at 9 MPH (8 knots; 4.1 m/s)
Visibility: 10 or more miles (16+ km)
Ceiling: at least 12,000 feet AGL
Clouds: sky clear below 12,000 feet AGL
Weather: no significant weather observed at this time

METAR text: KBUR 181753Z VRB05KT 10SM CLR 22/14 A2994 RMK AO2 SLP128 T02170144 10217 20172 51008
Conditions at: KBUR (BURBANK , CA, US) observed 1753 UTC 18 August 2019
Temperature: 21.7°C (71°F)
Dewpoint: 14.4°C (58°F) [RH = 63%]
Pressure (altimeter): 29.94 inches Hg (1014.0 mb)
[Sea-level pressure: 1012.8 mb]
Winds: variable direction winds at 6 MPH (5 knots; 2.6 m/s)
Visibility: 10 or more miles (16+ km)
Ceiling: at least 12,000 feet AGL
Clouds: sky clear below 12,000 feet AGL
Weather: no significant weather observed at this time

METAR text: KBUR 181713Z 13006KT 10SM FEW020 21/14 A2994 RMK AO2 T02110144
Conditions at: KBUR (BURBANK , CA, US) observed 1713 UTC 18 August 2019
Temperature: 21.1°C (70°F)
Dewpoint: 14.4°C (58°F) [RH = 66%]
Pressure (altimeter): 29.94 inches Hg (1014.0 mb)
Winds: from the SE (130 degrees) at 7 MPH (6 knots; 3.1 m/s)
Visibility: 10 or more miles (16+ km)
Ceiling: at least 12,000 feet AGL
Clouds: few clouds at 2000 feet AGL
Weather: no significant weather observed at this time

METAR text: KBUR 181653Z 16004KT 10SM BKN019 20/14 A2994 RMK AO2 SLP127 T02000144
Conditions at: KBUR (BURBANK , CA, US) observed 1653 UTC 18 August 2019
Temperature: 20.0°C (68°F)
Dewpoint: 14.4°C (58°F) [RH = 70%]
Pressure (altimeter): 29.94 inches Hg (1014.0 mb)
[Sea-level pressure: 1012.7 mb]
Winds: from the SSE (160 degrees) at 5 MPH (4 knots; 2.1 m/s)
Visibility: 10 or more miles (16+ km)
Ceiling: 1900 feet AGL
Clouds: broken clouds at 1900 feet AGL
Weather: no significant weather observed at this time

METAR text: KBUR 181553Z 00000KT 10SM OVC017 19/14 A2993 RMK AO2 SLP124 T01890144
Conditions at: KBUR (BURBANK , CA, US) observed 1553 UTC 18 August 2019
Temperature: 18.9°C (66°F)
Dewpoint: 14.4°C (58°F) [RH = 75%]
Pressure (altimeter): 29.93 inches Hg (1013.6 mb)
[Sea-level pressure: 1012.4 mb]
Winds: calm
Visibility: 10 or more miles (16+ km)
Ceiling: 1700 feet AGL
Clouds: overcast cloud deck at 1700 feet AGL
Weather: no significant weather observed at this time

METAR text: KBUR 181453Z 17004KT 10SM OVC016 18/14 A2992 RMK AO2 SLP120 T01830139 53011
Conditions at: KBUR (BURBANK , CA, US) observed 1453 UTC 18 August 2019
Temperature: 18.3°C (65°F)
Dewpoint: 13.9°C (57°F) [RH = 76%]
Pressure (altimeter): 29.92 inches Hg (1013.3 mb)
[Sea-level pressure: 1012.0 mb]
Winds: from the S (170 degrees) at 5 MPH (4 knots; 2.1 m/s)
Visibility: 10 or more miles (16+ km)
Ceiling: 1600 feet AGL
Clouds: overcast cloud deck at 1600 feet AGL
Weather: no significant weather observed at this time

METAR text: KBUR 181353Z 00000KT 10SM OVC015 18/14 A2990 RMK AO2 SLP114 T01780139
Conditions at: KBUR (BURBANK , CA, US) observed 1353 UTC 18 August 2019
Temperature: 17.8°C (64°F)
Dewpoint: 13.9°C (57°F) [RH = 78%]
Pressure (altimeter): 29.90 inches Hg (1012.6 mb)
[Sea-level pressure: 1011.4 mb]
Winds: calm
Visibility: 10 or more miles (16+ km)
Ceiling: 1500 feet AGL
Clouds: overcast cloud deck at 1500 feet AGL
Weather: no significant weather observed at this time

METAR text: KBUR 181349Z 00000KT 10SM OVC015 18/14 A2990 RMK AO2
Conditions at: KBUR (BURBANK , CA, US) observed 1349 UTC 18 August 2019
Temperature: 18.0°C (64°F)
Dewpoint: 14.0°C (57°F) [RH = 77%]
Pressure (altimeter): 29.90 inches Hg (1012.6 mb)
Winds: calm
Visibility: 10 or more miles (16+ km)
Ceiling: 1500 feet AGL
Clouds: overcast cloud deck at 1500 feet AGL
Weather: no significant weather observed at this time

METAR text: KBUR 181253Z 18003KT 10SM OVC014 18/14 A2989 RMK AO2 SLP109 T01780144
Conditions at: KBUR (BURBANK , CA, US) observed 1253 UTC 18 August 2019
Temperature: 17.8°C (64°F)
Dewpoint: 14.4°C (58°F) [RH = 80%]
Pressure (altimeter): 29.89 inches Hg (1012.3 mb)
[Sea-level pressure: 1010.9 mb]
Winds: from the S (180 degrees) at 3 MPH (3 knots; 1.5 m/s)
Visibility: 10 or more miles (16+ km)
Ceiling: 1400 feet AGL
Clouds: overcast cloud deck at 1400 feet AGL
Weather: no significant weather observed at this time

METAR text: KBUR 181153Z 20004KT 10SM OVC013 17/14 A2988 RMK AO2 SLP106 T01720144 10178 20172 58001
Conditions at: KBUR (BURBANK , CA, US) observed 1153 UTC 18 August 2019
Temperature: 17.2°C (63°F)
Dewpoint: 14.4°C (58°F) [RH = 84%]
Pressure (altimeter): 29.88 inches Hg (1011.9 mb)
[Sea-level pressure: 1010.6 mb]
Winds: from the SSW (200 degrees) at 5 MPH (4 knots; 2.1 m/s)
Visibility: 10 or more miles (16+ km)
Ceiling: 1300 feet AGL
Clouds: overcast cloud deck at 1300 feet AGL
Weather: no significant weather observed at this time

METAR text: KBUR 181100Z 16004KT 10SM OVC012 18/14 A2989 RMK AO2 T01780144
Conditions at: KBUR (BURBANK , CA, US) observed 1100 UTC 18 August 2019
Temperature: 17.8°C (64°F)
Dewpoint: 14.4°C (58°F) [RH = 80%]
Pressure (altimeter): 29.89 inches Hg (1012.3 mb)
Winds: from the SSE (160 degrees) at 5 MPH (4 knots; 2.1 m/s)
Visibility: 10 or more miles (16+ km)
Ceiling: 1200 feet AGL
Clouds: overcast cloud deck at 1200 feet AGL
Weather: no significant weather observed at this time

METAR text: KBUR 181053Z 06004KT 10SM OVC009 18/14 A2989 RMK AO2 SLP108 T01780144
Conditions at: KBUR (BURBANK , CA, US) observed 1053 UTC 18 August 2019
Temperature: 17.8°C (64°F)
Dewpoint: 14.4°C (58°F) [RH = 80%]
Pressure (altimeter): 29.89 inches Hg (1012.3 mb)
[Sea-level pressure: 1010.8 mb]
Winds: from the ENE (60 degrees) at 5 MPH (4 knots; 2.1 m/s)
Visibility: 10 or more miles (16+ km)
Ceiling: 900 feet AGL
Clouds: overcast cloud deck at 900 feet AGL
Weather: no significant weather observed at this time

METAR text: KBUR 180953Z 14008KT 10SM OVC009 17/15 A2989 RMK AO2 SLP111 T01720150
Conditions at: KBUR (BURBANK , CA, US) observed 0953 UTC 18 August 2019
Temperature: 17.2°C (63°F)
Dewpoint: 15.0°C (59°F) [RH = 87%]
Pressure (altimeter): 29.89 inches Hg (1012.3 mb)
[Sea-level pressure: 1011.1 mb]
Winds: from the SE (140 degrees) at 9 MPH (8 knots; 4.1 m/s)
Visibility: 10 or more miles (16+ km)
Ceiling: 900 feet AGL
Clouds: overcast cloud deck at 900 feet AGL
Weather: no significant weather observed at this time

METAR text: KBUR 180853Z 13006KT 10SM OVC009 17/15 A2989 RMK AO2 SLP108 T01720150 55000
Conditions at: KBUR (BURBANK , CA, US) observed 0853 UTC 18 August 2019
Temperature: 17.2°C (63°F)
Dewpoint: 15.0°C (59°F) [RH = 87%]
Pressure (altimeter): 29.89 inches Hg (1012.3 mb)
[Sea-level pressure: 1010.8 mb]
Winds: from the SE (130 degrees) at 7 MPH (6 knots; 3.1 m/s)
Visibility: 10 or more miles (16+ km)
Ceiling: 900 feet AGL
Clouds: overcast cloud deck at 900 feet AGL
Weather: no significant weather observed at this time

METAR text: KBUR 180806Z 17005KT 10SM OVC011 17/15 A2989 RMK AO2 T01720150
Conditions at: KBUR (BURBANK , CA, US) observed 0806 UTC 18 August 2019
Temperature: 17.2°C (63°F)
Dewpoint: 15.0°C (59°F) [RH = 87%]
Pressure (altimeter): 29.89 inches Hg (1012.3 mb)
Winds: from the S (170 degrees) at 6 MPH (5 knots; 2.6 m/s)
Visibility: 10 or more miles (16+ km)
Ceiling: 1100 feet AGL
Clouds: overcast cloud deck at 1100 feet AGL
Weather: no significant weather observed at this time

METAR text: KBUR 180753Z 17004KT 10SM SCT012 17/15 A2988 RMK AO2 SLP107 T01720150 402780172
Conditions at: KBUR (BURBANK , CA, US) observed 0753 UTC 18 August 2019
Temperature: 17.2°C (63°F)
Dewpoint: 15.0°C (59°F) [RH = 87%]
Pressure (altimeter): 29.88 inches Hg (1011.9 mb)
[Sea-level pressure: 1010.7 mb]
Winds: from the S (170 degrees) at 5 MPH (4 knots; 2.1 m/s)
Visibility: 10 or more miles (16+ km)
Ceiling: at least 12,000 feet AGL
Clouds: scattered clouds at 1200 feet AGL
Weather: no significant weather observed at this time

METAR text: KBUR 180653Z VRB05KT 10SM CLR 17/15 A2988 RMK AO2 SLP108 T01720150
Conditions at: KBUR (BURBANK , CA, US) observed 0653 UTC 18 August 2019
Temperature: 17.2°C (63°F)
Dewpoint: 15.0°C (59°F) [RH = 87%]
Pressure (altimeter): 29.88 inches Hg (1011.9 mb)
[Sea-level pressure: 1010.8 mb]
Winds: variable direction winds at 6 MPH (5 knots; 2.6 m/s)
Visibility: 10 or more miles (16+ km)
Ceiling: at least 12,000 feet AGL
Clouds: sky clear below 12,000 feet AGL
Weather: no significant weather observed at this time

METAR text: KBUR 180553Z 17004KT 10SM CLR 17/14 A2989 RMK AO2 SLP109 T01720144 10267 20172 51016
Conditions at: KBUR (BURBANK , CA, US) observed 0553 UTC 18 August 2019
Temperature: 17.2°C (63°F)
Dewpoint: 14.4°C (58°F) [RH = 84%]
Pressure (altimeter): 29.89 inches Hg (1012.3 mb)
[Sea-level pressure: 1010.9 mb]
Winds: from the S (170 degrees) at 5 MPH (4 knots; 2.1 m/s)
Visibility: 10 or more miles (16+ km)
Ceiling: at least 12,000 feet AGL
Clouds: sky clear below 12,000 feet AGL
Weather: no significant weather observed at this time

METAR text: KBUR 180453Z 18005KT 10SM CLR 18/15 A2988 RMK AO2 SLP106 T01830150
Conditions at: KBUR (BURBANK , CA, US) observed 0453 UTC 18 August 2019
Temperature: 18.3°C (65°F)
Dewpoint: 15.0°C (59°F) [RH = 81%]
Pressure (altimeter): 29.88 inches Hg (1011.9 mb)
[Sea-level pressure: 1010.6 mb]
Winds: from the S (180 degrees) at 6 MPH (5 knots; 2.6 m/s)
Visibility: 10 or more miles (16+ km)
Ceiling: at least 12,000 feet AGL
Clouds: sky clear below 12,000 feet AGL
Weather: no significant weather observed at this time

METAR text: KBUR 180353Z 18006KT 10SM CLR 19/15 A2986 RMK AO2 SLP100 T01890150
Conditions at: KBUR (BURBANK , CA, US) observed 0353 UTC 18 August 2019
Temperature: 18.9°C (66°F)
Dewpoint: 15.0°C (59°F) [RH = 78%]
Pressure (altimeter): 29.86 inches Hg (1011.3 mb)
[Sea-level pressure: 1010.0 mb]
Winds: from the S (180 degrees) at 7 MPH (6 knots; 3.1 m/s)
Visibility: 10 or more miles (16+ km)
Ceiling: at least 12,000 feet AGL
Clouds: sky clear below 12,000 feet AGL
Weather: no significant weather observed at this time

METAR text: KBUR 180253Z 18006KT 10SM CLR 20/15 A2984 RMK AO2 SLP094 T02000150 53004
Conditions at: KBUR (BURBANK , CA, US) observed 0253 UTC 18 August 2019
Temperature: 20.0°C (68°F)
Dewpoint: 15.0°C (59°F) [RH = 73%]
Pressure (altimeter): 29.84 inches Hg (1010.6 mb)
[Sea-level pressure: 1009.4 mb]
Winds: from the S (180 degrees) at 7 MPH (6 knots; 3.1 m/s)
Visibility: 10 or more miles (16+ km)
Ceiling: at least 12,000 feet AGL
Clouds: sky clear below 12,000 feet AGL
Weather: no significant weather observed at this time

METAR text: KBUR 180153Z 18008KT 10SM CLR 22/15 A2983 RMK AO2 SLP088 T02220150
Conditions at: KBUR (BURBANK , CA, US) observed 0153 UTC 18 August 2019
Temperature: 22.2°C (72°F)
Dewpoint: 15.0°C (59°F) [RH = 64%]
Pressure (altimeter): 29.83 inches Hg (1010.2 mb)
[Sea-level pressure: 1008.8 mb]
Winds: from the S (180 degrees) at 9 MPH (8 knots; 4.1 m/s)
Visibility: 10 or more miles (16+ km)
Ceiling: at least 12,000 feet AGL
Clouds: sky clear below 12,000 feet AGL
Weather: no significant weather observed at this time

METAR text: KBUR 180053Z 17008KT 10SM CLR 24/15 A2983 RMK AO2 SLP088 T02440150
Conditions at: KBUR (BURBANK , CA, US) observed 0053 UTC 18 August 2019
Temperature: 24.4°C (76°F)
Dewpoint: 15.0°C (59°F) [RH = 56%]
Pressure (altimeter): 29.83 inches Hg (1010.2 mb)
[Sea-level pressure: 1008.8 mb]
Winds: from the S (170 degrees) at 9 MPH (8 knots; 4.1 m/s)
Visibility: 10 or more miles (16+ km)
Ceiling: at least 12,000 feet AGL
Clouds: sky clear below 12,000 feet AGL
Weather: no significant weather observed at this time

METAR text: KBUR 172353Z 18008KT 10SM CLR 27/15 A2983 RMK AO2 SLP088 T02670150 10278 20211 56016
Conditions at: KBUR (BURBANK , CA, US) observed 2353 UTC 17 August 2019
Temperature: 26.7°C (80°F)
Dewpoint: 15.0°C (59°F) [RH = 49%]
Pressure (altimeter): 29.83 inches Hg (1010.2 mb)
[Sea-level pressure: 1008.8 mb]
Winds: from the S (180 degrees) at 9 MPH (8 knots; 4.1 m/s)
Visibility: 10 or more miles (16+ km)
Ceiling: at least 12,000 feet AGL
Clouds: sky clear below 12,000 feet AGL
Weather: no significant weather observed at this time

METAR text: KBUR 172253Z 19009KT 10SM CLR 27/14 A2984 RMK AO2 SLP092 T02670144
Conditions at: KBUR (BURBANK , CA, US) observed 2253 UTC 17 August 2019
Temperature: 26.7°C (80°F)
Dewpoint: 14.4°C (58°F) [RH = 47%]
Pressure (altimeter): 29.84 inches Hg (1010.6 mb)
[Sea-level pressure: 1009.2 mb]
Winds: from the S (190 degrees) at 10 MPH (9 knots; 4.6 m/s)
Visibility: 10 or more miles (16+ km)
Ceiling: at least 12,000 feet AGL
Clouds: sky clear below 12,000 feet AGL
Weather: no significant weather observed at this time

METAR text: KBUR 172153Z 19009G15KT 10SM CLR 27/14 A2986 RMK AO2 SLP099 T02720144
Conditions at: KBUR (BURBANK , CA, US) observed 2153 UTC 17 August 2019
Temperature: 27.2°C (81°F)
Dewpoint: 14.4°C (58°F) [RH = 45%]
Pressure (altimeter): 29.86 inches Hg (1011.3 mb)
[Sea-level pressure: 1009.9 mb]
Winds: from the S (190 degrees) at 10 MPH (9 knots; 4.6 m/s)
gusting to 17 MPH (15 knots; 7.7 m/s)
Visibility: 10 or more miles (16+ km)
Ceiling: at least 12,000 feet AGL
Clouds: sky clear below 12,000 feet AGL
Weather: no significant weather observed at this time

METAR text: KBUR 172053Z 19009KT 10SM CLR 27/14 A2988 RMK AO2 SLP105 T02670139 58015
Conditions at: KBUR (BURBANK , CA, US) observed 2053 UTC 17 August 2019
Temperature: 26.7°C (80°F)
Dewpoint: 13.9°C (57°F) [RH = 45%]
Pressure (altimeter): 29.88 inches Hg (1011.9 mb)
[Sea-level pressure: 1010.5 mb]
Winds: from the S (190 degrees) at 10 MPH (9 knots; 4.6 m/s)
Visibility: 10 or more miles (16+ km)
Ceiling: at least 12,000 feet AGL
Clouds: sky clear below 12,000 feet AGL
Weather: no significant weather observed at this time

METAR text: KBUR 171953Z 17010KT 10SM CLR 26/14 A2989 RMK AO2 SLP110 T02610139
Conditions at: KBUR (BURBANK , CA, US) observed 1953 UTC 17 August 2019
Temperature: 26.1°C (79°F)
Dewpoint: 13.9°C (57°F) [RH = 47%]
Pressure (altimeter): 29.89 inches Hg (1012.3 mb)
[Sea-level pressure: 1011.0 mb]
Winds: from the S (170 degrees) at 12 MPH (10 knots; 5.1 m/s)
Visibility: 10 or more miles (16+ km)
Ceiling: at least 12,000 feet AGL
Clouds: sky clear below 12,000 feet AGL
Weather: no significant weather observed at this time

METAR text: KBUR 171853Z VRB03KT 10SM CLR 24/14 A2991 RMK AO2 SLP117 T02390144
Conditions at: KBUR (BURBANK , CA, US) observed 1853 UTC 17 August 2019
Temperature: 23.9°C (75°F)
Dewpoint: 14.4°C (58°F) [RH = 55%]
Pressure (altimeter): 29.91 inches Hg (1013.0 mb)
[Sea-level pressure: 1011.7 mb]
Winds: variable direction winds at 3 MPH (3 knots; 1.5 m/s)
Visibility: 10 or more miles (16+ km)
Ceiling: at least 12,000 feet AGL
Clouds: sky clear below 12,000 feet AGL
Weather: no significant weather observed at this time

METAR text: KBUR 171753Z VRB05KT 10SM CLR 21/14 A2992 RMK AO2 SLP121 T02110139 10217 20178 58001
Conditions at: KBUR (BURBANK , CA, US) observed 1753 UTC 17 August 2019
Temperature: 21.1°C (70°F)
Dewpoint: 13.9°C (57°F) [RH = 63%]
Pressure (altimeter): 29.92 inches Hg (1013.3 mb)
[Sea-level pressure: 1012.1 mb]
Winds: variable direction winds at 6 MPH (5 knots; 2.6 m/s)
Visibility: 10 or more miles (16+ km)
Ceiling: at least 12,000 feet AGL
Clouds: sky clear below 12,000 feet AGL
Weather: no significant weather observed at this time

METAR text: KBUR 171659Z VRB05KT 10SM SCT019 19/14 A2993 RMK AO2 T01940139
Conditions at: KBUR (BURBANK , CA, US) observed 1659 UTC 17 August 2019
Temperature: 19.4°C (67°F)
Dewpoint: 13.9°C (57°F) [RH = 71%]
Pressure (altimeter): 29.93 inches Hg (1013.6 mb)
Winds: variable direction winds at 6 MPH (5 knots; 2.6 m/s)
Visibility: 10 or more miles (16+ km)
Ceiling: at least 12,000 feet AGL
Clouds: scattered clouds at 1900 feet AGL
Weather: no significant weather observed at this time

METAR text: KBUR 171653Z COR 15005KT 10SM SCT019 19/14 A2993 RMK AO2 SLP125 T01940139
Conditions at: KBUR (BURBANK , CA, US) observed 1653 UTC 17 August 2019
Temperature: 19.4°C (67°F)
Dewpoint: 13.9°C (57°F) [RH = 71%]
Pressure (altimeter): 29.93 inches Hg (1013.6 mb)
[Sea-level pressure: 1012.5 mb]
Winds: from the SSE (150 degrees) at 6 MPH (5 knots; 2.6 m/s)
Visibility: 10 or more miles (16+ km)
Ceiling: at least 12,000 feet AGL
Clouds: scattered clouds at 1900 feet AGL
Weather: no significant weather observed at this time

Forecast for: KBUR (BURBANK , CA, US)
Text: KBUR 182334Z 1900/1924 18008KT P6SM SCT250
Forecast period: 0000 to 0400 UTC 19 August 2019
Forecast type: FROM: standard forecast or significant change
Winds: from the S (180 degrees) at 9 MPH (8 knots; 4.1 m/s)
Visibility: 6 or more miles 10+ km)
Ceiling: at least 12,000 feet AGL
Clouds: scattered clouds at 25000 feet AGL
Weather: no significant weather forecast for this period
Text: FM190400 14004KT P6SM SCT250
Forecast period: 0400 to 1300 UTC 19 August 2019
Forecast type: FROM: standard forecast or significant change
Winds: from the SE (140 degrees) at 5 MPH (4 knots; 2.1 m/s)
Visibility: 6 or more miles 10+ km)
Ceiling: at least 12,000 feet AGL
Clouds: scattered clouds at 25000 feet AGL
Weather: no significant weather forecast for this period
Text: FM191300 VRB03KT 6SM HZ BKN013
Forecast period: 1300 to 1630 UTC 19 August 2019
Forecast type: FROM: standard forecast or significant change
Winds: variable direction winds at 3 MPH (3 knots; 1.5 m/s)
Visibility: 6 miles (10 km)
Ceiling: 1300 feet AGL
Clouds: broken clouds at 1300 feet AGL
Weather: HZ  (haze)
Text: FM191630 15004KT P6SM FEW013
Forecast period: 1630 to 2000 UTC 19 August 2019
Forecast type: FROM: standard forecast or significant change
Winds: from the SSE (150 degrees) at 5 MPH (4 knots; 2.1 m/s)
Visibility: 6 or more miles 10+ km)
Ceiling: at least 12,000 feet AGL
Clouds: few clouds at 1300 feet AGL
Weather: no significant weather forecast for this period
Text: FM192000 18009KT P6SM SKC
Forecast period: 2000 UTC 19 August 2019 to 0000 UTC 20 August 2019
Forecast type: FROM: standard forecast or significant change
Winds: from the S (180 degrees) at 10 MPH (9 knots; 4.6 m/s)
Visibility: 6 or more miles 10+ km)
Clouds: clear skies
Weather: no significant weather forecast for this period